Time;durP1;ratioP1;P1;durP2;ratioP2;P2;SDS_P1;SDS_P2;PMS_P1;PMS_P2;Temp;Humidity;BMP_temperature;BMP_pressure;BME280_temperature;BME280_humidity;BME280_pressure;Samples;Min_cycle;Max_cycle;Signal;HPM_P1;HPM_P2
2023/09/25 00:01:26;;;;;;;7.90;3.10;;;;;;;;;;6120023;23;20176;-93
2023/09/25 00:04:33;;;;;;;6.50;3.40;;;;;;;;;;6121684;23;20153;-93
2023/09/25 00:07:39;;;;;;;9.63;3.45;;;;;;;;;;6119890;23;20612;-93
2023/09/25 00:10:44;;;;;;;7.30;3.60;;;;;;;;;;6120413;23;20181;-94
2023/09/25 00:13:50;;;;;;;6.10;3.47;;;;;;;;;;6119133;23;20173;-95
2023/09/25 00:16:55;;;;;;;6.43;3.85;;;;;;;;;;6118373;23;20497;-91
2023/09/25 00:20:04;;;;;;;7.45;2.78;;;;;;;;;;6118786;23;20178;-92
2023/09/25 00:23:09;;;;;;;5.75;3.20;;;;;;;;;;6118490;23;20588;-94
2023/09/25 00:26:14;;;;;;;5.97;3.40;;;;;;;;;;6117783;23;20173;-93
2023/09/25 00:29:26;;;;;;;5.40;3.22;;;;;;;;;;6117742;23;20279;-94
2023/09/25 00:32:33;;;;;;;8.07;3.45;;;;;;;;;;6116513;23;20173;-92
2023/09/25 00:35:43;;;;;;;6.93;3.20;;;;;;;;;;6117248;23;20155;-93
2023/09/25 00:38:49;;;;;;;5.47;2.90;;;;;;;;;;6117209;23;20245;-92
2023/09/25 00:41:54;;;;;;;4.75;3.25;;;;;;;;;;6135562;23;20180;-92
2023/09/25 00:44:59;;;;;;;6.72;3.00;;;;;;;;;;6118053;23;20184;-92
2023/09/25 00:48:05;;;;;;;9.00;3.33;;;;;;;;;;6116937;23;20221;-93
2023/09/25 00:51:11;;;;;;;5.80;3.00;;;;;;;;;;6118866;23;20180;-93
2023/09/25 00:54:18;;;;;;;4.63;3.13;;;;;;;;;;6118030;23;20172;-93
2023/09/25 00:57:23;;;;;;;6.78;3.00;;;;;;;;;;6118557;23;20181;-91
2023/09/25 01:00:28;;;;;;;5.32;3.28;;;;;;;;;;6117573;23;20250;-92
2023/09/25 01:03:33;;;;;;;7.45;3.05;;;;;;;;;;6118490;23;20225;-92
2023/09/25 01:06:42;;;;;;;5.18;3.05;;;;;;;;;;6119625;23;20165;-92
2023/09/25 01:10:02;;;;;;;8.73;3.00;;;;;;;;;;6118778;23;20200;-92
2023/09/25 01:13:09;;;;;;;6.18;3.50;;;;;;;;;;6136737;23;20173;-90
2023/09/25 01:16:15;;;;;;;4.95;3.20;;;;;;;;;;6119310;23;20249;-94
2023/09/25 01:19:21;;;;;;;6.88;3.05;;;;;;;;;;6117180;23;20169;-92
2023/09/25 01:22:27;;;;;;;9.93;3.08;;;;;;;;;;6119219;23;20169;-93
2023/09/25 01:25:32;;;;;;;4.88;3.08;;;;;;;;;;6134899;23;20168;-93
2023/09/25 01:28:36;;;;;;;6.00;3.33;;;;;;;;;;6133602;23;20626;-90
2023/09/25 01:31:42;;;;;;;7.90;3.63;;;;;;;;;;6116457;23;20169;-92
2023/09/25 01:34:47;;;;;;;4.75;3.25;;;;;;;;;;6117202;23;20173;-93
2023/09/25 01:37:57;;;;;;;7.50;3.45;;;;;;;;;;6116087;23;20192;-92
2023/09/25 01:41:02;;;;;;;4.97;3.13;;;;;;;;;;6116244;23;20169;-93
2023/09/25 01:44:07;;;;;;;7.60;3.40;;;;;;;;;;6117360;23;20173;-90
2023/09/25 01:47:13;;;;;;;7.75;3.30;;;;;;;;;;6116833;23;20169;-92
2023/09/25 01:50:18;;;;;;;4.80;3.30;;;;;;;;;;6133662;23;20192;-93
2023/09/25 01:53:24;;;;;;;5.50;2.92;;;;;;;;;;6117164;23;20173;-94
2023/09/25 01:56:29;;;;;;;8.25;3.15;;;;;;;;;;6117459;23;20181;-92
2023/09/25 01:59:34;;;;;;;5.88;3.50;;;;;;;;;;6117200;23;20498;-91
2023/09/25 02:02:40;;;;;;;6.50;3.50;;;;;;;;;;6116987;23;20657;-91
2023/09/25 02:05:45;;;;;;;7.95;3.55;;;;;;;;;;6118601;23;20180;-91
2023/09/25 02:08:52;;;;;;;8.70;3.22;;;;;;;;;;6117077;23;20190;-88
2023/09/25 02:11:57;;;;;;;4.68;3.25;;;;;;;;;;6134778;23;20469;-93
2023/09/25 02:15:04;;;;;;;7.50;3.35;;;;;;;;;;6117335;23;20224;-90
2023/09/25 02:18:09;;;;;;;4.97;3.05;;;;;;;;;;6118299;23;20293;-92
2023/09/25 02:21:14;;;;;;;7.65;3.45;;;;;;;;;;6117723;23;20169;-93
2023/09/25 02:24:21;;;;;;;6.43;3.50;;;;;;;;;;6115973;23;20557;-94
2023/09/25 02:27:26;;;;;;;5.43;3.28;;;;;;;;;;6117796;23;20198;-93
2023/09/25 02:30:31;;;;;;;7.72;3.20;;;;;;;;;;6115894;23;20317;-91
2023/09/25 02:33:37;;;;;;;4.40;2.83;;;;;;;;;;6117274;23;20503;-91
2023/09/25 02:36:43;;;;;;;4.10;2.60;;;;;;;;;;6120509;23;20188;-91
2023/09/25 02:39:49;;;;;;;8.00;2.65;;;;;;;;;;6119449;23;20170;-91
2023/09/25 02:42:54;;;;;;;5.47;3.10;;;;;;;;;;6119698;23;20177;-93
2023/09/25 02:45:59;;;;;;;7.32;3.03;;;;;;;;;;6134276;23;20168;-93
2023/09/25 02:49:04;;;;;;;6.00;3.08;;;;;;;;;;6134718;23;20297;-93
2023/09/25 02:52:09;;;;;;;8.93;3.40;;;;;;;;;;6117614;23;20729;-93
2023/09/25 02:55:15;;;;;;;11.25;5.07;;;;;;;;;;6119109;23;20188;-93
2023/09/25 02:58:20;;;;;;;9.57;5.07;;;;;;;;;;6117901;23;20641;-92
2023/09/25 03:01:26;;;;;;;12.05;4.90;;;;;;;;;;6115106;23;20177;-92
2023/09/25 03:04:31;;;;;;;8.55;3.95;;;;;;;;;;6116856;23;20173;-92
2023/09/25 03:07:38;;;;;;;4.90;3.47;;;;;;;;;;6116817;23;20177;-92
2023/09/25 03:10:46;;;;;;;6.63;3.88;;;;;;;;;;6118463;23;20326;-94
2023/09/25 03:13:51;;;;;;;8.73;3.50;;;;;;;;;;6117703;23;20188;-93
2023/09/25 03:16:56;;;;;;;7.35;4.03;;;;;;;;;;6117312;23;20178;-90
2023/09/25 03:20:03;;;;;;;6.25;3.90;;;;;;;;;;6118498;23;20278;-93
2023/09/25 03:23:08;;;;;;;5.95;3.75;;;;;;;;;;6135856;23;20169;-93
2023/09/25 03:26:18;;;;;;;9.27;3.63;;;;;;;;;;6119362;23;20290;-93
2023/09/25 03:29:23;;;;;;;5.90;3.75;;;;;;;;;;6118690;23;20169;-93
2023/09/25 03:32:29;;;;;;;9.88;4.38;;;;;;;;;;6118816;23;20197;-90
2023/09/25 03:35:34;;;;;;;7.07;4.22;;;;;;;;;;6118400;23;20185;-92
2023/09/25 03:38:39;;;;;;;7.80;4.38;;;;;;;;;;6119636;23;20497;-93
2023/09/25 03:41:46;;;;;;;6.45;4.22;;;;;;;;;;6120106;23;20169;-92
2023/09/25 03:44:51;;;;;;;7.80;3.83;;;;;;;;;;6119716;23;20186;-93
2023/09/25 03:47:57;;;;;;;7.45;4.20;;;;;;;;;;6118717;23;20181;-94
2023/09/25 03:51:02;;;;;;;7.38;3.80;;;;;;;;;;6118698;23;20676;-91
2023/09/25 03:54:08;;;;;;;6.13;3.90;;;;;;;;;;6119569;23;20188;-93
2023/09/25 03:57:14;;;;;;;5.25;3.80;;;;;;;;;;6118105;23;20240;-93
2023/09/25 04:00:19;;;;;;;5.43;3.47;;;;;;;;;;6118534;23;20177;-93
2023/09/25 04:03:25;;;;;;;4.75;3.22;;;;;;;;;;6116849;23;20240;-92
2023/09/25 04:06:30;;;;;;;6.55;3.90;;;;;;;;;;6119898;23;20173;-92
2023/09/25 04:09:35;;;;;;;11.82;4.10;;;;;;;;;;6118421;23;20165;-92
2023/09/25 04:12:41;;;;;;;5.60;3.70;;;;;;;;;;6119867;23;20625;-93
2023/09/25 04:15:46;;;;;;;7.13;3.60;;;;;;;;;;6120249;23;20504;-93
2023/09/25 04:18:51;;;;;;;5.38;3.58;;;;;;;;;;6119647;23;20169;-90
2023/09/25 04:21:59;;;;;;;6.82;3.53;;;;;;;;;;6121263;23;20197;-94
2023/09/25 04:25:08;;;;;;;6.35;3.70;;;;;;;;;;6118461;23;20286;-92
2023/09/25 04:28:15;;;;;;;6.05;3.40;;;;;;;;;;6137968;23;20186;-93
2023/09/25 04:31:20;;;;;;;7.88;3.63;;;;;;;;;;6119943;23;20663;-92
2023/09/25 04:34:25;;;;;;;6.32;3.72;;;;;;;;;;6118849;23;20173;-91
2023/09/25 04:37:30;;;;;;;5.63;3.35;;;;;;;;;;6120345;23;20192;-92
2023/09/25 04:40:35;;;;;;;6.53;4.13;;;;;;;;;;6121936;23;20168;-91
2023/09/25 04:43:41;;;;;;;7.03;3.70;;;;;;;;;;6120755;23;20170;-92
2023/09/25 04:46:46;;;;;;;5.68;3.63;;;;;;;;;;6140194;23;20177;-93
2023/09/25 04:49:51;;;;;;;6.90;4.28;;;;;;;;;;6123619;23;20196;-88
2023/09/25 04:52:56;;;;;;;8.73;4.28;;;;;;;;;;6129956;23;20157;-92
2023/09/25 04:56:02;;;;;;;6.68;3.85;;;;;;;;;;6127458;23;20162;-92
2023/09/25 04:59:09;;;;;;;5.75;4.15;;;;;;;;;;6125245;23;20169;-91
2023/09/25 05:02:16;;;;;;;13.60;4.90;;;;;;;;;;6121004;23;20245;-91
2023/09/25 05:05:22;;;;;;;7.90;4.35;;;;;;;;;;6127111;23;20161;-88
2023/09/25 05:08:28;;;;;;;6.20;3.90;;;;;;;;;;6123184;23;20637;-92
2023/09/25 05:11:33;;;;;;;9.80;4.85;;;;;;;;;;6121855;23;20200;-89
2023/09/25 05:14:39;;;;;;;8.35;4.70;;;;;;;;;;6140812;23;20177;-89
2023/09/25 05:17:55;;;;;;;8.00;4.88;;;;;;;;;;6124887;23;20241;-91
2023/09/25 05:21:05;;;;;;;9.27;4.53;;;;;;;;;;6124973;23;20152;-93
2023/09/25 05:24:10;;;;;;;8.90;5.35;;;;;;;;;;6138559;23;20169;-93
2023/09/25 05:27:16;;;;;;;12.67;5.90;;;;;;;;;;6124023;23;20173;-89
2023/09/25 05:30:22;;;;;;;14.95;5.68;;;;;;;;;;6123576;23;20209;-92
2023/09/25 05:33:27;;;;;;;14.40;6.05;;;;;;;;;;6122603;23;20203;-89
2023/09/25 05:36:43;;;;;;;12.70;6.05;;;;;;;;;;6126766;23;20192;-92
2023/09/25 05:39:49;;;;;;;9.32;5.25;;;;;;;;;;6147801;23;20173;-91
2023/09/25 05:42:54;;;;;;;9.65;5.63;;;;;;;;;;6120698;23;20185;-88
2023/09/25 05:46:01;;;;;;;8.68;5.07;;;;;;;;;;6124873;23;20184;-91
2023/09/25 05:49:16;;;;;;;10.88;5.50;;;;;;;;;;6123277;23;20172;-90
2023/09/25 05:52:21;;;;;;;12.63;5.55;;;;;;;;;;6122673;23;20677;-91
2023/09/25 05:55:27;;;;;;;10.02;5.13;;;;;;;;;;6122351;23;20255;-93
2023/09/25 05:58:35;;;;;;;8.45;5.13;;;;;;;;;;6124138;23;20264;-90
2023/09/25 06:01:42;;;;;;;11.90;7.00;;;;;;;;;;6125063;23;20168;-89
2023/09/25 06:04:47;;;;;;;6.15;4.10;;;;;;;;;;6125853;23;20542;-90
2023/09/25 06:07:52;;;;;;;13.68;5.68;;;;;;;;;;6136239;23;20694;-94
2023/09/25 06:11:03;;;;;;;13.23;5.50;;;;;;;;;;6121401;23;20181;-92
2023/09/25 06:14:09;;;;;;;12.25;5.60;;;;;;;;;;6119959;23;20209;-91
2023/09/25 06:17:15;;;;;;;11.30;5.07;;;;;;;;;;6120038;23;20597;-92
2023/09/25 06:20:20;;;;;;;11.30;5.43;;;;;;;;;;6119172;23;20169;-90
2023/09/25 06:23:25;;;;;;;15.40;6.10;;;;;;;;;;6120503;23;20231;-91
2023/09/25 06:26:30;;;;;;;11.18;5.68;;;;;;;;;;6122115;23;20205;-91
2023/09/25 06:29:36;;;;;;;11.40;5.38;;;;;;;;;;6120808;23;20229;-87
2023/09/25 06:32:44;;;;;;;10.15;5.05;;;;;;;;;;6120596;23;20168;-89
2023/09/25 06:35:49;;;;;;;12.98;6.22;;;;;;;;;;6121322;23;20201;-92
2023/09/25 06:38:54;;;;;;;13.40;5.68;;;;;;;;;;6121438;23;20503;-92
2023/09/25 06:42:00;;;;;;;8.38;4.80;;;;;;;;;;6122783;23;20164;-91
2023/09/25 06:45:07;;;;;;;12.50;5.45;;;;;;;;;;6121898;23;20283;-88
2023/09/25 06:48:14;;;;;;;9.25;5.45;;;;;;;;;;6119376;23;20217;-92
2023/09/25 06:51:19;;;;;;;9.30;5.03;;;;;;;;;;6135917;23;20579;-91
2023/09/25 06:54:24;;;;;;;8.50;4.88;;;;;;;;;;6120132;23;20506;-92
2023/09/25 06:57:28;;;;;;;9.43;4.70;;;;;;;;;;6135854;23;20174;-88
2023/09/25 07:00:34;;;;;;;8.43;4.82;;;;;;;;;;6118191;23;20166;-91
2023/09/25 07:03:40;;;;;;;8.65;5.20;;;;;;;;;;6122900;23;20177;-92
2023/09/25 07:06:46;;;;;;;11.77;5.30;;;;;;;;;;6139074;23;20168;-93
2023/09/25 07:09:52;;;;;;;9.82;5.35;;;;;;;;;;6122037;23;20189;-89
2023/09/25 07:12:57;;;;;;;10.68;5.13;;;;;;;;;;6120137;23;20186;-92
2023/09/25 07:16:06;;;;;;;11.38;5.78;;;;;;;;;;6120520;23;20181;-90
2023/09/25 07:19:13;;;;;;;11.43;5.18;;;;;;;;;;6120655;23;20201;-91
2023/09/25 07:22:20;;;;;;;8.93;4.90;;;;;;;;;;6112198;23;20224;-91
2023/09/25 07:25:25;;;;;;;13.35;5.80;;;;;;;;;;6119718;23;20173;-93
2023/09/25 07:28:30;;;;;;;9.15;5.32;;;;;;;;;;6117324;23;20204;-89
2023/09/25 07:31:35;;;;;;;10.05;5.95;;;;;;;;;;6119079;23;20288;-90
2023/09/25 07:34:43;;;;;;;10.57;5.60;;;;;;;;;;6120907;23;20240;-93
2023/09/25 13:47:30;;;;;;;3.42;1.85;;;;;;;;;;6148650;22;1317405;-93
2023/09/25 13:50:38;;;;;;;5.55;2.15;;;;;;;;;;6154972;23;20160;-92
2023/09/25 13:53:44;;;;;;;2.70;1.50;;;;;;;;;;6159162;23;20241;-95
2023/09/25 13:56:53;;;;;;;5.82;2.05;;;;;;;;;;6156677;23;20163;-93
2023/09/25 13:59:59;;;;;;;4.93;2.10;;;;;;;;;;6155517;23;20176;-93
2023/09/25 14:03:06;;;;;;;4.57;2.38;;;;;;;;;;6155177;23;20168;-93
2023/09/25 14:06:13;;;;;;;2.70;1.75;;;;;;;;;;6155482;23;20247;-93
2023/09/25 14:09:19;;;;;;;6.35;2.47;;;;;;;;;;6155452;23;20211;-94
2023/09/25 14:12:25;;;;;;;3.63;2.10;;;;;;;;;;6155018;23;20167;-94
2023/09/25 14:15:32;;;;;;;3.60;1.88;;;;;;;;;;6156455;23;20176;-93
2023/09/25 14:18:39;;;;;;;2.75;1.70;;;;;;;;;;6153774;23;20172;-94
2023/09/25 14:21:44;;;;;;;2.78;1.92;;;;;;;;;;6155909;23;20208;-94
2023/09/25 14:28:09;;;;;;;3.88;1.75;;;;;;;;;;6155615;23;20244;-93
2023/09/25 14:31:18;;;;;;;4.68;2.08;;;;;;;;;;6171165;23;20233;-93
2023/09/25 14:34:39;;;;;;;4.25;1.90;;;;;;;;;;6162331;23;20151;-95
2023/09/25 14:37:46;;;;;;;5.18;2.25;;;;;;;;;;6155006;23;20183;-91
2023/09/25 14:44:11;;;;;;;4.97;2.05;;;;;;;;;;6154573;23;20490;-92
2023/09/25 14:47:16;;;;;;;3.70;1.77;;;;;;;;;;6153064;23;20203;-94
2023/09/25 14:50:22;;;;;;;5.80;2.20;;;;;;;;;;6154879;23;20237;-94
2023/09/25 14:53:30;;;;;;;5.15;1.83;;;;;;;;;;6157084;23;20429;-95
2023/09/25 14:56:36;;;;;;;6.53;2.15;;;;;;;;;;6157740;23;20245;-92
2023/09/25 14:59:42;;;;;;;6.03;1.95;;;;;;;;;;6154333;23;20607;-94
2023/09/25 15:02:48;;;;;;;5.25;1.85;;;;;;;;;;6155214;23;20179;-91
2023/09/25 15:09:14;;;;;;;5.50;2.10;;;;;;;;;;6155599;23;20160;-93
2023/09/25 15:12:23;;;;;;;6.72;2.20;;;;;;;;;;6156575;23;20229;-93
2023/09/25 15:15:32;;;;;;;8.90;2.10;;;;;;;;;;6156506;23;20216;-90
2023/09/25 15:18:46;;;;;;;9.23;2.40;;;;;;;;;;6158657;23;20209;-92
2023/09/25 15:21:51;;;;;;;9.77;2.20;;;;;;;;;;6154274;23;20176;-93
2023/09/25 15:24:57;;;;;;;4.93;1.85;;;;;;;;;;6156412;23;20175;-93
2023/09/25 15:28:03;;;;;;;9.23;1.88;;;;;;;;;;6155733;23;20195;-93
2023/09/25 15:31:09;;;;;;;5.30;2.20;;;;;;;;;;6156178;23;20170;-90
2023/09/25 15:34:14;;;;;;;6.13;2.28;;;;;;;;;;6154294;23;20167;-91
2023/09/25 15:37:20;;;;;;;3.60;2.40;;;;;;;;;;6153410;23;20219;-93
2023/09/25 15:40:28;;;;;;;6.68;2.95;;;;;;;;;;6155952;23;20155;-91
2023/09/25 15:43:34;;;;;;;5.75;2.28;;;;;;;;;;6156449;23;20151;-90
2023/09/25 16:36:34;;;;;;;10.30;3.03;;;;;;;;;;6208088;22;20224;-92
2023/09/25 16:39:39;;;;;;;11.05;3.40;;;;;;;;;;6186244;23;20215;-92
2023/09/25 16:42:46;;;;;;;8.20;3.33;;;;;;;;;;6202314;23;20180;-92
2023/09/25 16:45:53;;;;;;;13.07;4.25;;;;;;;;;;6184871;23;20164;-94
2023/09/25 16:48:59;;;;;;;9.10;4.47;;;;;;;;;;6202164;23;20307;-93
2023/09/25 16:52:10;;;;;;;11.27;4.05;;;;;;;;;;6202437;23;20168;-95
2023/09/25 16:55:16;;;;;;;9.30;3.63;;;;;;;;;;6201621;23;20184;-94
2023/09/25 16:58:25;;;;;;;10.05;3.72;;;;;;;;;;6202791;22;20168;-93
2023/09/25 17:01:31;;;;;;;7.60;3.92;;;;;;;;;;6204452;23;20167;-93
2023/09/25 17:04:38;;;;;;;8.73;3.50;;;;;;;;;;6205347;23;20460;-93
2023/09/25 17:07:45;;;;;;;6.95;3.72;;;;;;;;;;6201947;22;20192;-91
2023/09/25 17:10:52;;;;;;;7.82;3.35;;;;;;;;;;6205145;23;20249;-92
2023/09/25 17:14:01;;;;;;;5.07;3.58;;;;;;;;;;6204541;23;20180;-94
2023/09/25 17:17:08;;;;;;;20.15;9.15;;;;;;;;;;6205531;23;20172;-92
2023/09/25 17:20:22;;;;;;;14.48;5.82;;;;;;;;;;6201404;23;20172;-92
2023/09/25 17:23:29;;;;;;;11.38;5.50;;;;;;;;;;6204836;23;20231;-92
2023/09/25 17:26:34;;;;;;;9.75;4.72;;;;;;;;;;6202930;22;20241;-93
2023/09/25 17:29:39;;;;;;;12.00;4.63;;;;;;;;;;6202716;23;20229;-92
2023/09/25 17:32:45;;;;;;;10.85;4.75;;;;;;;;;;6203454;23;20224;-95
2023/09/25 18:11:03;;;;;;;10.77;5.20;;;;;;;;;;6164086;22;20208;-93
2023/09/25 18:17:31;;;;;;;12.27;4.53;;;;;;;;;;6185653;23;20171;-91
2023/09/25 18:20:36;;;;;;;10.07;5.43;;;;;;;;;;6183708;23;20215;-93
2023/09/25 18:23:41;;;;;;;8.93;4.93;;;;;;;;;;6183295;23;20215;-92
2023/09/25 18:26:48;;;;;;;7.10;4.85;;;;;;;;;;6184561;23;20175;-93
2023/09/25 18:29:54;;;;;;;8.43;5.07;;;;;;;;;;6185004;23;20219;-92
2023/09/25 18:33:00;;;;;;;7.78;4.60;;;;;;;;;;6185559;23;20176;-94
2023/09/25 18:36:08;;;;;;;8.40;4.65;;;;;;;;;;6185639;23;20178;-94
2023/09/25 18:39:14;;;;;;;10.93;4.63;;;;;;;;;;6185191;23;20151;-93
2023/09/25 18:42:22;;;;;;;6.88;4.00;;;;;;;;;;6184209;23;20238;-92
2023/09/25 18:45:31;;;;;;;7.18;4.10;;;;;;;;;;6186718;23;20244;-94
2023/09/25 18:48:37;;;;;;;7.32;4.30;;;;;;;;;;6184188;23;20198;-94
2023/09/25 18:55:03;;;;;;;11.80;4.90;;;;;;;;;;6184101;23;20199;-94
2023/09/25 18:58:10;;;;;;;8.93;5.30;;;;;;;;;;6183930;22;20172;-93
2023/09/25 19:01:16;;;;;;;14.30;4.95;;;;;;;;;;6183755;23;20192;-92
2023/09/25 19:04:21;;;;;;;10.88;5.50;;;;;;;;;;6184568;23;20183;-94
2023/09/25 19:07:27;;;;;;;8.20;4.90;;;;;;;;;;6184091;23;20498;-94
2023/09/25 19:10:33;;;;;;;11.63;6.50;;;;;;;;;;6183626;23;20188;-95
2023/09/25 19:13:40;;;;;;;16.00;6.82;;;;;;;;;;6183783;23;20200;-91
2023/09/25 19:16:46;;;;;;;9.98;6.18;;;;;;;;;;6184688;23;20731;-94
2023/09/25 19:19:51;;;;;;;33.65;16.95;;;;;;;;;;6183089;23;20241;-95
2023/09/25 19:22:56;;;;;;;17.20;10.50;;;;;;;;;;6201548;23;20171;-93
2023/09/25 19:26:02;;;;;;;9.32;4.85;;;;;;;;;;6185063;23;20296;-96
2023/09/25 19:29:10;;;;;;;9.85;4.82;;;;;;;;;;6185549;22;20203;-93
2023/09/25 19:32:16;;;;;;;9.55;5.05;;;;;;;;;;6183531;23;20175;-95
2023/09/25 19:35:22;;;;;;;6.40;4.55;;;;;;;;;;6184826;23;20168;-92
2023/09/25 19:38:28;;;;;;;10.07;5.40;;;;;;;;;;6184193;23;20201;-95
2023/09/25 19:41:44;;;;;;;9.07;4.60;;;;;;;;;;6183449;23;20215;-94
2023/09/25 19:44:53;;;;;;;10.80;4.88;;;;;;;;;;6184365;23;20176;-94
2023/09/25 19:48:03;;;;;;;11.57;5.70;;;;;;;;;;6182598;23;20287;-94
2023/09/25 19:51:10;;;;;;;8.35;4.82;;;;;;;;;;6182901;23;20176;-95
2023/09/25 19:54:16;;;;;;;9.10;5.32;;;;;;;;;;6184114;23;20168;-96
2023/09/25 19:57:22;;;;;;;8.27;4.97;;;;;;;;;;6181649;23;20167;-93
2023/09/25 20:00:28;;;;;;;8.13;4.90;;;;;;;;;;6184205;22;20168;-95
2023/09/25 20:03:34;;;;;;;13.23;5.60;;;;;;;;;;6181608;23;20225;-93
2023/09/25 20:06:39;;;;;;;12.15;5.07;;;;;;;;;;6182308;23;20178;-94
2023/09/25 20:09:45;;;;;;;10.80;5.68;;;;;;;;;;6182727;23;20264;-95
2023/09/25 20:12:50;;;;;;;8.10;5.00;;;;;;;;;;6198775;23;20244;-95
2023/09/25 20:15:58;;;;;;;9.10;5.05;;;;;;;;;;6182357;22;20168;-93
2023/09/25 20:19:03;;;;;;;12.57;4.97;;;;;;;;;;6182496;23;20168;-95
2023/09/25 20:22:08;;;;;;;10.80;5.03;;;;;;;;;;6183423;23;20219;-96
2023/09/25 20:25:17;;;;;;;7.55;4.85;;;;;;;;;;6181557;23;20168;-94
2023/09/25 20:28:22;;;;;;;11.60;5.10;;;;;;;;;;6181103;23;20220;-93
2023/09/25 20:31:28;;;;;;;10.25;5.60;;;;;;;;;;6181436;23;20203;-96
2023/09/25 20:34:33;;;;;;;9.65;5.35;;;;;;;;;;6181059;22;20167;-94
2023/09/25 20:37:38;;;;;;;9.07;5.70;;;;;;;;;;6182842;23;20163;-93
2023/09/25 20:40:43;;;;;;;10.45;5.70;;;;;;;;;;6177382;23;20167;-89
2023/09/25 20:43:49;;;;;;;9.68;4.88;;;;;;;;;;6175125;23;20200;-90
2023/09/25 20:46:58;;;;;;;11.32;4.90;;;;;;;;;;6176863;23;20172;-92
2023/09/25 20:50:03;;;;;;;9.13;5.30;;;;;;;;;;6179733;23;20196;-90
2023/09/25 20:53:08;;;;;;;8.82;5.47;;;;;;;;;;6181795;23;20184;-91
2023/09/25 20:56:14;;;;;;;7.78;5.05;;;;;;;;;;6182007;23;20171;-91
2023/09/25 20:59:18;;;;;;;14.88;5.28;;;;;;;;;;6181668;23;20217;-92
2023/09/25 21:02:25;;;;;;;11.10;4.90;;;;;;;;;;6181779;23;20168;-89
2023/09/25 21:05:30;;;;;;;11.75;5.43;;;;;;;;;;6181419;23;20175;-91
2023/09/25 21:08:35;;;;;;;10.75;5.43;;;;;;;;;;6181956;23;20191;-89
2023/09/25 21:11:41;;;;;;;10.45;5.82;;;;;;;;;;6179980;23;20194;-91
2023/09/25 21:14:46;;;;;;;14.85;6.30;;;;;;;;;;6179773;23;20509;-90
2023/09/25 21:17:53;;;;;;;12.15;6.03;;;;;;;;;;6180977;23;20242;-89
2023/09/25 21:20:57;;;;;;;9.60;6.45;;;;;;;;;;6182140;23;20296;-91
2023/09/25 21:24:02;;;;;;;10.23;6.15;;;;;;;;;;6181672;23;20256;-91
2023/09/25 21:27:08;;;;;;;13.98;6.47;;;;;;;;;;6181264;23;20171;-93
2023/09/25 21:30:13;;;;;;;11.25;6.15;;;;;;;;;;6180578;23;20196;-92
2023/09/25 21:33:20;;;;;;;14.68;6.32;;;;;;;;;;6180751;23;20167;-92
2023/09/25 21:36:25;;;;;;;12.82;5.88;;;;;;;;;;6181235;23;20171;-92
2023/09/25 21:39:30;;;;;;;10.93;5.90;;;;;;;;;;6181380;23;20168;-91
2023/09/25 21:42:35;;;;;;;9.98;5.35;;;;;;;;;;6181431;23;20173;-91
2023/09/25 21:45:40;;;;;;;13.85;6.18;;;;;;;;;;6182256;23;20187;-92
2023/09/25 21:48:47;;;;;;;9.52;5.68;;;;;;;;;;6181176;23;20211;-92
2023/09/25 21:51:52;;;;;;;7.85;5.20;;;;;;;;;;6181024;23;20180;-92
2023/09/25 21:54:57;;;;;;;11.85;5.30;;;;;;;;;;6182591;23;20171;-93
2023/09/25 21:58:02;;;;;;;7.95;5.40;;;;;;;;;;6182270;23;20239;-92
2023/09/25 22:01:07;;;;;;;11.77;6.00;;;;;;;;;;6182520;23;20312;-94
2023/09/25 22:04:14;;;;;;;9.02;5.68;;;;;;;;;;6181865;23;20171;-91
2023/09/25 22:07:19;;;;;;;8.57;5.10;;;;;;;;;;6182923;23;20172;-90
2023/09/25 22:10:25;;;;;;;8.70;5.00;;;;;;;;;;6181590;23;20196;-92
2023/09/25 22:13:31;;;;;;;9.00;5.20;;;;;;;;;;6183724;22;20171;-91
2023/09/25 22:16:37;;;;;;;10.82;5.03;;;;;;;;;;6182978;23;20313;-91
2023/09/25 22:19:44;;;;;;;11.73;5.38;;;;;;;;;;6181987;23;20491;-90
2023/09/25 22:22:49;;;;;;;13.57;5.47;;;;;;;;;;6180917;23;20171;-92
2023/09/25 22:25:54;;;;;;;9.00;4.93;;;;;;;;;;6183165;23;20678;-91
2023/09/25 22:29:00;;;;;;;11.95;5.03;;;;;;;;;;6182395;22;20196;-91
2023/09/25 22:32:06;;;;;;;13.32;5.13;;;;;;;;;;6180766;23;20172;-91
2023/09/25 22:35:13;;;;;;;9.57;5.10;;;;;;;;;;6181189;23;20218;-92
2023/09/25 22:38:18;;;;;;;8.90;4.97;;;;;;;;;;6181028;23;20172;-90
2023/09/25 22:41:23;;;;;;;15.90;5.30;;;;;;;;;;6181872;23;20619;-89
2023/09/25 22:44:28;;;;;;;10.40;5.15;;;;;;;;;;6183220;23;20236;-93
2023/09/25 22:47:33;;;;;;;12.43;5.40;;;;;;;;;;6183529;23;20175;-92
2023/09/25 22:50:40;;;;;;;9.60;5.55;;;;;;;;;;6182242;23;20159;-92
2023/09/25 22:53:47;;;;;;;11.30;4.85;;;;;;;;;;6182712;23;20172;-92
2023/09/25 22:56:52;;;;;;;12.02;4.72;;;;;;;;;;6181129;23;20171;-93
2023/09/25 22:59:58;;;;;;;9.90;5.60;;;;;;;;;;6182775;23;20211;-93
2023/09/25 23:03:03;;;;;;;10.55;5.22;;;;;;;;;;6183956;23;20210;-90
2023/09/25 23:06:10;;;;;;;8.68;4.82;;;;;;;;;;6183007;23;20217;-91
2023/09/25 23:09:14;;;;;;;10.68;4.88;;;;;;;;;;6183685;23;20240;-90
2023/09/25 23:12:20;;;;;;;11.38;5.60;;;;;;;;;;6181432;23;20191;-91
2023/09/25 23:15:25;;;;;;;11.45;4.72;;;;;;;;;;6182271;23;20220;-88
2023/09/25 23:18:30;;;;;;;12.55;4.97;;;;;;;;;;6182751;23;20183;-91
2023/09/25 23:21:37;;;;;;;7.63;4.90;;;;;;;;;;6182799;23;20167;-91
2023/09/25 23:24:45;;;;;;;7.30;4.90;;;;;;;;;;6182850;23;20262;-89
2023/09/25 23:27:51;;;;;;;10.98;5.47;;;;;;;;;;6198318;22;20176;-91
2023/09/25 23:30:58;;;;;;;8.45;5.10;;;;;;;;;;6181519;23;20163;-93
2023/09/25 23:34:02;;;;;;;7.85;5.07;;;;;;;;;;6181273;22;20168;-92
2023/09/25 23:37:09;;;;;;;13.85;5.55;;;;;;;;;;6196818;23;20216;-91
2023/09/25 23:40:19;;;;;;;10.20;5.55;;;;;;;;;;6180995;23;20176;-91
2023/09/25 23:43:25;;;;;;;9.43;5.28;;;;;;;;;;6181447;23;20168;-90
2023/09/25 23:46:30;;;;;;;9.25;5.18;;;;;;;;;;6181292;23;20172;-91
2023/09/25 23:49:35;;;;;;;16.10;5.50;;;;;;;;;;6180904;23;20230;-90
2023/09/25 23:52:42;;;;;;;8.88;4.93;;;;;;;;;;6180612;23;20160;-91
2023/09/25 23:55:47;;;;;;;10.35;5.03;;;;;;;;;;6180556;23;20506;-90
2023/09/25 23:58:52;;;;;;;10.55;5.50;;;;;;;;;;6180001;23;20167;-90
